sensor_id;sensor_type;location;lat;lon;timestamp;pressure;altitude;pressure_sealevel;temperature;humidity
15678;BME280;7939;50.814;6.368;2023-05-01T00:00:26;100032.84;;;16.05;53.40
15678;BME280;7939;50.814;6.368;2023-05-01T00:02:54;100038.00;;;16.05;53.53
15678;BME280;7939;50.814;6.368;2023-05-01T00:05:20;100031.16;;;16.04;53.44
15678;BME280;7939;50.814;6.368;2023-05-01T00:07:47;100026.00;;;16.03;53.70
15678;BME280;7939;50.814;6.368;2023-05-01T00:10:14;100025.16;;;16.02;53.75
15678;BME280;7939;50.814;6.368;2023-05-01T00:12:40;100025.19;;;16.01;53.77
15678;BME280;7939;50.814;6.368;2023-05-01T00:15:08;100020.03;;;16.01;53.92
15678;BME280;7939;50.814;6.368;2023-05-01T00:17:35;100016.63;;;16.00;53.78
15678;BME280;7939;50.814;6.368;2023-05-01T00:20:04;100012.34;;;15.99;53.92
15678;BME280;7939;50.814;6.368;2023-05-01T00:22:31;100006.34;;;15.99;54.04
15678;BME280;7939;50.814;6.368;2023-05-01T00:24:57;100009.81;;;15.98;53.98
15678;BME280;7939;50.814;6.368;2023-05-01T00:27:24;100004.66;;;15.96;54.07
15678;BME280;7939;50.814;6.368;2023-05-01T00:29:51;100004.69;;;15.95;53.90
15678;BME280;7939;50.814;6.368;2023-05-01T00:32:18;99997.00;;;15.93;53.99
15678;BME280;7939;50.814;6.368;2023-05-01T00:34:44;99993.59;;;15.91;53.85
15678;BME280;7939;50.814;6.368;2023-05-01T00:37:14;99995.34;;;15.90;53.79
15678;BME280;7939;50.814;6.368;2023-05-01T00:39:41;99990.19;;;15.90;54.00
15678;BME280;7939;50.814;6.368;2023-05-01T00:42:08;99993.59;;;15.89;54.12
15678;BME280;7939;50.814;6.368;2023-05-01T00:44:35;99988.47;;;15.88;54.20
15678;BME280;7939;50.814;6.368;2023-05-01T00:47:01;99986.78;;;15.87;54.21
15678;BME280;7939;50.814;6.368;2023-05-01T00:49:28;99988.53;;;15.86;54.01
15678;BME280;7939;50.814;6.368;2023-05-01T00:51:55;99975.66;;;15.85;54.40
15678;BME280;7939;50.814;6.368;2023-05-01T00:54:24;99972.22;;;15.86;54.20
15678;BME280;7939;50.814;6.368;2023-05-01T00:56:52;99978.25;;;15.85;54.16
15678;BME280;7939;50.814;6.368;2023-05-01T00:59:18;99969.66;;;15.84;54.07
15678;BME280;7939;50.814;6.368;2023-05-01T01:01:45;99967.09;;;15.84;54.24
15678;BME280;7939;50.814;6.368;2023-05-01T01:04:12;99962.78;;;15.83;54.30
15678;BME280;7939;50.814;6.368;2023-05-01T01:06:48;99961.09;;;15.82;54.14
15678;BME280;7939;50.814;6.368;2023-05-01T01:09:25;99958.53;;;15.82;54.16
15678;BME280;7939;50.814;6.368;2023-05-01T01:12:00;99955.97;;;15.81;54.35
15678;BME280;7939;50.814;6.368;2023-05-01T01:14:32;99953.44;;;15.79;54.48
15678;BME280;7939;50.814;6.368;2023-05-01T01:17:03;99943.97;;;15.80;54.31
15678;BME280;7939;50.814;6.368;2023-05-01T01:20:18;99948.28;;;15.79;54.25
15678;BME280;7939;50.814;6.368;2023-05-01T01:22:52;99939.72;;;15.79;54.54
15678;BME280;7939;50.814;6.368;2023-05-01T01:25:35;99934.56;;;15.77;54.75
15678;BME280;7939;50.814;6.368;2023-05-01T01:28:23;99938.88;;;15.77;54.22
15678;BME280;7939;50.814;6.368;2023-05-01T01:31:08;99931.97;;;15.77;54.30
15678;BME280;7939;50.814;6.368;2023-05-01T01:33:48;99920.88;;;15.75;54.33
15678;BME280;7939;50.814;6.368;2023-05-01T01:36:19;99934.59;;;15.76;54.28
15678;BME280;7939;50.814;6.368;2023-05-01T01:38:54;99921.75;;;15.74;54.61
15678;BME280;7939;50.814;6.368;2023-05-01T01:41:30;99926.00;;;15.75;54.75
15678;BME280;7939;50.814;6.368;2023-05-01T01:44:01;99913.16;;;15.74;54.61
15678;BME280;7939;50.814;6.368;2023-05-01T01:46:34;99911.47;;;15.73;54.72
15678;BME280;7939;50.814;6.368;2023-05-01T01:49:05;99907.16;;;15.73;54.54
15678;BME280;7939;50.814;6.368;2023-05-01T01:51:33;99899.44;;;15.73;54.84
15678;BME280;7939;50.814;6.368;2023-05-01T01:54:01;99903.75;;;15.73;54.83
15678;BME280;7939;50.814;6.368;2023-05-01T01:56:32;99902.91;;;15.72;54.90
15678;BME280;7939;50.814;6.368;2023-05-01T01:59:00;99900.31;;;15.72;54.77
15678;BME280;7939;50.814;6.368;2023-05-01T02:01:28;99893.47;;;15.70;54.88
15678;BME280;7939;50.814;6.368;2023-05-01T02:03:55;99888.38;;;15.68;55.08
15678;BME280;7939;50.814;6.368;2023-05-01T02:06:25;99890.09;;;15.68;55.06
15678;BME280;7939;50.814;6.368;2023-05-01T02:08:53;99883.25;;;15.67;55.12
15678;BME280;7939;50.814;6.368;2023-05-01T02:11:23;99880.72;;;15.65;55.29
15678;BME280;7939;50.814;6.368;2023-05-01T02:13:52;99881.56;;;15.66;55.19
15678;BME280;7939;50.814;6.368;2023-05-01T02:16:21;99882.41;;;15.66;54.75
15678;BME280;7939;50.814;6.368;2023-05-01T02:18:50;99878.97;;;15.66;55.09
15678;BME280;7939;50.814;6.368;2023-05-01T02:21:18;99872.97;;;15.65;55.25
15678;BME280;7939;50.814;6.368;2023-05-01T02:23:46;99873.84;;;15.66;55.47
15678;BME280;7939;50.814;6.368;2023-05-01T02:26:15;99868.69;;;15.64;55.49
15678;BME280;7939;50.814;6.368;2023-05-01T02:28:43;99866.09;;;15.64;55.34
15678;BME280;7939;50.814;6.368;2023-05-01T02:31:10;99866.09;;;15.64;55.31
15678;BME280;7939;50.814;6.368;2023-05-01T02:33:36;99860.09;;;15.63;55.09
15678;BME280;7939;50.814;6.368;2023-05-01T02:36:03;99854.13;;;15.63;55.56
15678;BME280;7939;50.814;6.368;2023-05-01T02:38:30;99857.56;;;15.62;55.29
15678;BME280;7939;50.814;6.368;2023-05-01T02:40:59;99855.84;;;15.62;55.72
15678;BME280;7939;50.814;6.368;2023-05-01T02:43:27;99851.53;;;15.63;55.65
15678;BME280;7939;50.814;6.368;2023-05-01T02:45:57;99846.38;;;15.61;55.62
15678;BME280;7939;50.814;6.368;2023-05-01T02:48:26;99833.50;;;15.61;55.75
15678;BME280;7939;50.814;6.368;2023-05-01T02:50:55;99839.53;;;15.60;55.64
15678;BME280;7939;50.814;6.368;2023-05-01T02:53:22;99836.97;;;15.62;55.45
15678;BME280;7939;50.814;6.368;2023-05-01T02:55:49;99831.81;;;15.60;55.52
15678;BME280;7939;50.814;6.368;2023-05-01T02:58:18;99829.22;;;15.62;55.47
15678;BME280;7939;50.814;6.368;2023-05-01T03:00:45;99825.78;;;15.61;55.48
15678;BME280;7939;50.814;6.368;2023-05-01T03:03:13;99822.34;;;15.61;55.64
15678;BME280;7939;50.814;6.368;2023-05-01T03:05:41;99821.50;;;15.60;55.26
15678;BME280;7939;50.814;6.368;2023-05-01T03:08:07;99824.94;;;15.61;55.46
15678;BME280;7939;50.814;6.368;2023-05-01T03:10:34;99813.78;;;15.60;55.59
15678;BME280;7939;50.814;6.368;2023-05-01T03:13:00;99814.66;;;15.59;55.53
15678;BME280;7939;50.814;6.368;2023-05-01T03:15:29;99810.38;;;15.58;55.94
15678;BME280;7939;50.814;6.368;2023-05-01T03:17:55;99809.53;;;15.58;55.60
15678;BME280;7939;50.814;6.368;2023-05-01T03:20:22;99804.38;;;15.58;55.66
15678;BME280;7939;50.814;6.368;2023-05-01T03:22:48;99814.69;;;15.58;55.76
15678;BME280;7939;50.814;6.368;2023-05-01T03:25:15;99800.94;;;15.57;55.67
15678;BME280;7939;50.814;6.368;2023-05-01T03:27:42;99794.94;;;15.57;55.66
15678;BME280;7939;50.814;6.368;2023-05-01T03:30:09;99794.09;;;15.56;55.70
15678;BME280;7939;50.814;6.368;2023-05-01T03:32:37;99788.16;;;15.54;55.73
15678;BME280;7939;50.814;6.368;2023-05-01T03:35:04;99785.53;;;15.56;55.82
15678;BME280;7939;50.814;6.368;2023-05-01T03:37:31;99784.69;;;15.55;55.73
15678;BME280;7939;50.814;6.368;2023-05-01T03:39:58;99783.84;;;15.55;56.00
15678;BME280;7939;50.814;6.368;2023-05-01T03:42:24;99790.72;;;15.54;56.06
15678;BME280;7939;50.814;6.368;2023-05-01T03:44:51;99776.16;;;15.53;56.22
15678;BME280;7939;50.814;6.368;2023-05-01T03:47:18;99783.03;;;15.53;56.18
15678;BME280;7939;50.814;6.368;2023-05-01T03:49:45;99772.75;;;15.51;55.93
15678;BME280;7939;50.814;6.368;2023-05-01T03:52:12;99773.59;;;15.52;56.12
15678;BME280;7939;50.814;6.368;2023-05-01T03:54:39;99776.16;;;15.52;56.19
15678;BME280;7939;50.814;6.368;2023-05-01T03:57:05;99777.03;;;15.51;56.38
15678;BME280;7939;50.814;6.368;2023-05-01T03:59:32;99773.66;;;15.49;56.35
15678;BME280;7939;50.814;6.368;2023-05-01T04:01:59;99783.09;;;15.50;56.23
15678;BME280;7939;50.814;6.368;2023-05-01T04:04:26;99774.50;;;15.49;56.19
15678;BME280;7939;50.814;6.368;2023-05-01T04:06:55;99772.81;;;15.48;56.27
15678;BME280;7939;50.814;6.368;2023-05-01T04:09:21;99781.44;;;15.47;56.42
15678;BME280;7939;50.814;6.368;2023-05-01T04:11:48;99777.16;;;15.46;56.16
15678;BME280;7939;50.814;6.368;2023-05-01T04:14:15;99775.44;;;15.47;56.63
15678;BME280;7939;50.814;6.368;2023-05-01T04:16:41;99772.00;;;15.46;56.47
15678;BME280;7939;50.814;6.368;2023-05-01T04:19:08;99768.56;;;15.46;56.35
15678;BME280;7939;50.814;6.368;2023-05-01T04:21:35;99769.44;;;15.45;56.58
15678;BME280;7939;50.814;6.368;2023-05-01T04:24:03;99778.00;;;15.45;56.35
15678;BME280;7939;50.814;6.368;2023-05-01T04:26:29;99773.75;;;15.44;56.70
15678;BME280;7939;50.814;6.368;2023-05-01T04:28:56;99767.75;;;15.44;56.68
15678;BME280;7939;50.814;6.368;2023-05-01T04:31:22;99767.78;;;15.42;56.61
15678;BME280;7939;50.814;6.368;2023-05-01T04:33:49;99768.63;;;15.43;56.33
15678;BME280;7939;50.814;6.368;2023-05-01T04:36:16;99771.22;;;15.43;56.86
15678;BME280;7939;50.814;6.368;2023-05-01T04:38:43;99768.66;;;15.41;56.47
15678;BME280;7939;50.814;6.368;2023-05-01T04:41:10;99768.66;;;15.41;56.48
15678;BME280;7939;50.814;6.368;2023-05-01T04:43:37;99767.78;;;15.42;56.72
15678;BME280;7939;50.814;6.368;2023-05-01T04:46:04;99766.94;;;15.42;56.87
15678;BME280;7939;50.814;6.368;2023-05-01T04:48:31;99770.41;;;15.41;56.96
15678;BME280;7939;50.814;6.368;2023-05-01T04:50:57;99772.13;;;15.40;56.48
15678;BME280;7939;50.814;6.368;2023-05-01T04:53:24;99770.41;;;15.41;56.58
15678;BME280;7939;50.814;6.368;2023-05-01T04:55:50;99773.81;;;15.39;56.44
15678;BME280;7939;50.814;6.368;2023-05-01T04:58:18;99772.97;;;15.39;56.92
15678;BME280;7939;50.814;6.368;2023-05-01T05:00:45;99769.56;;;15.40;56.83
15678;BME280;7939;50.814;6.368;2023-05-01T05:03:12;99775.56;;;15.39;56.95
15678;BME280;7939;50.814;6.368;2023-05-01T05:05:38;99769.56;;;15.38;56.53
15678;BME280;7939;50.814;6.368;2023-05-01T05:08:05;99770.41;;;15.39;56.38
15678;BME280;7939;50.814;6.368;2023-05-01T05:10:33;99768.69;;;15.39;56.69
15678;BME280;7939;50.814;6.368;2023-05-01T05:13:00;99771.25;;;15.39;56.65
15678;BME280;7939;50.814;6.368;2023-05-01T05:15:28;99772.97;;;15.39;56.86
15678;BME280;7939;50.814;6.368;2023-05-01T05:17:55;99771.25;;;15.39;56.99
15678;BME280;7939;50.814;6.368;2023-05-01T05:20:21;99775.56;;;15.39;57.00
15678;BME280;7939;50.814;6.368;2023-05-01T05:22:48;99770.41;;;15.39;57.19
15678;BME280;7939;50.814;6.368;2023-05-01T05:25:15;99773.81;;;15.39;57.18
15678;BME280;7939;50.814;6.368;2023-05-01T05:27:42;99777.28;;;15.38;57.02
15678;BME280;7939;50.814;6.368;2023-05-01T05:30:09;99776.44;;;15.38;56.89
15678;BME280;7939;50.814;6.368;2023-05-01T05:32:37;99779.03;;;15.38;57.05
15678;BME280;7939;50.814;6.368;2023-05-01T05:35:04;99779.88;;;15.38;56.69
15678;BME280;7939;50.814;6.368;2023-05-01T05:37:31;99776.44;;;15.38;56.73
15678;BME280;7939;50.814;6.368;2023-05-01T05:39:58;99777.28;;;15.38;56.60
15678;BME280;7939;50.814;6.368;2023-05-01T05:42:25;99780.72;;;15.39;56.56
15678;BME280;7939;50.814;6.368;2023-05-01T05:44:52;99782.44;;;15.38;56.83
15678;BME280;7939;50.814;6.368;2023-05-01T05:47:18;99774.72;;;15.38;57.01
15678;BME280;7939;50.814;6.368;2023-05-01T05:49:47;99772.13;;;15.38;57.03
15678;BME280;7939;50.814;6.368;2023-05-01T05:52:13;99772.13;;;15.38;56.79
15678;BME280;7939;50.814;6.368;2023-05-01T05:54:40;99774.72;;;15.40;56.33
15678;BME280;7939;50.814;6.368;2023-05-01T05:57:07;99772.13;;;15.38;56.75
15678;BME280;7939;50.814;6.368;2023-05-01T05:59:34;99764.41;;;15.40;57.17
15678;BME280;7939;50.814;6.368;2023-05-01T06:02:01;99774.72;;;15.40;57.22
15678;BME280;7939;50.814;6.368;2023-05-01T06:04:27;99771.25;;;15.41;56.82
15678;BME280;7939;50.814;6.368;2023-05-01T06:06:55;99772.13;;;15.40;57.38
15678;BME280;7939;50.814;6.368;2023-05-01T06:09:22;99766.09;;;15.41;57.74
15678;BME280;7939;50.814;6.368;2023-05-01T06:11:48;99760.94;;;15.41;57.34
15678;BME280;7939;50.814;6.368;2023-05-01T06:14:15;99760.94;;;15.41;57.58
15678;BME280;7939;50.814;6.368;2023-05-01T06:16:42;99762.63;;;15.42;57.14
15678;BME280;7939;50.814;6.368;2023-05-01T06:19:08;99764.34;;;15.43;56.90
15678;BME280;7939;50.814;6.368;2023-05-01T06:21:36;99765.19;;;15.44;57.07
15678;BME280;7939;50.814;6.368;2023-05-01T06:24:05;99760.88;;;15.44;57.22
15678;BME280;7939;50.814;6.368;2023-05-01T06:26:31;99757.41;;;15.45;57.04
15678;BME280;7939;50.814;6.368;2023-05-01T06:28:58;99758.28;;;15.44;56.91
15678;BME280;7939;50.814;6.368;2023-05-01T06:31:24;99759.13;;;15.45;56.55
15678;BME280;7939;50.814;6.368;2023-05-01T06:33:51;99763.41;;;15.46;56.81
15678;BME280;7939;50.814;6.368;2023-05-01T06:36:18;99758.25;;;15.47;56.54
15678;BME280;7939;50.814;6.368;2023-05-01T06:38:44;99762.56;;;15.47;56.66
15678;BME280;7939;50.814;6.368;2023-05-01T06:41:15;99752.25;;;15.47;56.80
15678;BME280;7939;50.814;6.368;2023-05-01T06:43:42;99758.22;;;15.49;56.36
15678;BME280;7939;50.814;6.368;2023-05-01T06:46:08;99757.31;;;15.50;56.04
15678;BME280;7939;50.814;6.368;2023-05-01T06:48:35;99761.59;;;15.51;56.35
15678;BME280;7939;50.814;6.368;2023-05-01T06:51:01;99758.13;;;15.52;55.81
15678;BME280;7939;50.814;6.368;2023-05-01T06:53:28;99753.88;;;15.51;56.30
15678;BME280;7939;50.814;6.368;2023-05-01T06:55:55;99757.28;;;15.51;55.74
15678;BME280;7939;50.814;6.368;2023-05-01T06:58:22;99756.41;;;15.52;55.91
15678;BME280;7939;50.814;6.368;2023-05-01T07:00:49;99761.56;;;15.52;55.80
15678;BME280;7939;50.814;6.368;2023-05-01T07:03:16;99753.81;;;15.52;56.19
15678;BME280;7939;50.814;6.368;2023-05-01T07:05:42;99751.25;;;15.54;55.87
15678;BME280;7939;50.814;6.368;2023-05-01T07:08:09;99756.41;;;15.54;56.20
15678;BME280;7939;50.814;6.368;2023-05-01T07:10:36;99757.25;;;15.54;56.25
15678;BME280;7939;50.814;6.368;2023-05-01T07:13:02;99755.47;;;15.56;56.13
15678;BME280;7939;50.814;6.368;2023-05-01T07:15:30;99756.31;;;15.57;56.05
15678;BME280;7939;50.814;6.368;2023-05-01T07:17:58;99752.00;;;15.59;55.96
15678;BME280;7939;50.814;6.368;2023-05-01T07:20:27;99757.16;;;15.59;55.92
15678;BME280;7939;50.814;6.368;2023-05-01T07:22:53;99757.94;;;15.62;55.79
15678;BME280;7939;50.814;6.368;2023-05-01T07:25:20;99752.81;;;15.62;56.08
15678;BME280;7939;50.814;6.368;2023-05-01T07:27:46;99750.19;;;15.64;56.12
15678;BME280;7939;50.814;6.368;2023-05-01T07:30:13;99753.59;;;15.66;56.04
15678;BME280;7939;50.814;6.368;2023-05-01T07:32:41;99756.09;;;15.69;56.01
15678;BME280;7939;50.814;6.368;2023-05-01T07:35:08;99752.63;;;15.70;55.97
15678;BME280;7939;50.814;6.368;2023-05-01T07:37:35;99759.47;;;15.71;55.87
15678;BME280;7939;50.814;6.368;2023-05-01T07:40:02;99759.47;;;15.73;55.72
15678;BME280;7939;50.814;6.368;2023-05-01T07:42:29;99768.81;;;15.77;55.55
15678;BME280;7939;50.814;6.368;2023-05-01T07:44:55;99762.78;;;15.78;55.84
15678;BME280;7939;50.814;6.368;2023-05-01T07:47:22;99755.88;;;15.80;55.94
15678;BME280;7939;50.814;6.368;2023-05-01T07:49:50;99762.69;;;15.82;56.28
15678;BME280;7939;50.814;6.368;2023-05-01T07:52:16;99761.03;;;15.80;56.81
15678;BME280;7939;50.814;6.368;2023-05-01T07:54:48;99758.38;;;15.83;56.80
15678;BME280;7939;50.814;6.368;2023-05-01T07:57:15;99760.06;;;15.85;56.91
15678;BME280;7939;50.814;6.368;2023-05-01T07:59:41;99763.44;;;15.87;56.90
15678;BME280;7939;50.814;6.368;2023-05-01T08:02:08;99758.22;;;15.90;57.07
15678;BME280;7939;50.814;6.368;2023-05-01T08:04:35;99757.34;;;15.91;56.81
15678;BME280;7939;50.814;6.368;2023-05-01T08:07:03;99757.22;;;15.96;56.58
15678;BME280;7939;50.814;6.368;2023-05-01T08:09:29;99756.31;;;15.99;56.31
15678;BME280;7939;50.814;6.368;2023-05-01T08:11:56;99768.22;;;16.03;56.40
15678;BME280;7939;50.814;6.368;2023-05-01T08:14:23;99763.88;;;16.06;56.18
15678;BME280;7939;50.814;6.368;2023-05-01T08:16:49;99758.66;;;16.09;56.92
15678;BME280;7939;50.814;6.368;2023-05-01T08:19:19;99760.25;;;16.13;56.64
15678;BME280;7939;50.814;6.368;2023-05-01T08:21:46;99760.22;;;16.16;56.48
15678;BME280;7939;50.814;6.368;2023-05-01T08:24:14;99761.06;;;16.17;56.48
15678;BME280;7939;50.814;6.368;2023-05-01T08:26:41;99764.38;;;16.22;56.15
15678;BME280;7939;50.814;6.368;2023-05-01T08:29:08;99763.50;;;16.23;56.21
15678;BME280;7939;50.814;6.368;2023-05-01T08:31:35;99758.28;;;16.25;56.33
15678;BME280;7939;50.814;6.368;2023-05-01T08:34:03;99756.50;;;16.27;56.14
15678;BME280;7939;50.814;6.368;2023-05-01T08:36:30;99766.81;;;16.27;55.97
15678;BME280;7939;50.814;6.368;2023-05-01T08:38:57;99760.78;;;16.29;56.02
15678;BME280;7939;50.814;6.368;2023-05-01T08:41:26;99761.47;;;16.36;55.70
15678;BME280;7939;50.814;6.368;2023-05-01T08:43:56;99760.59;;;16.37;55.65
15678;BME280;7939;50.814;6.368;2023-05-01T08:46:28;99764.75;;;16.42;55.39
15678;BME280;7939;50.814;6.368;2023-05-01T08:49:01;99752.59;;;16.48;55.75
15678;BME280;7939;50.814;6.368;2023-05-01T08:51:31;99749.88;;;16.54;55.21
15678;BME280;7939;50.814;6.368;2023-05-01T08:53:58;99754.94;;;16.57;54.95
15678;BME280;7939;50.814;6.368;2023-05-01T08:56:29;99758.28;;;16.60;55.19
15678;BME280;7939;50.814;6.368;2023-05-01T08:58:59;99758.16;;;16.65;54.86
15678;BME280;7939;50.814;6.368;2023-05-01T09:01:29;99757.19;;;16.70;54.56
15678;BME280;7939;50.814;6.368;2023-05-01T09:03:57;99751.91;;;16.75;55.03
15678;BME280;7939;50.814;6.368;2023-05-01T09:06:24;99740.66;;;16.78;55.02
15678;BME280;7939;50.814;6.368;2023-05-01T09:08:52;99754.34;;;16.81;54.21
15678;BME280;7939;50.814;6.368;2023-05-01T09:11:19;99747.38;;;16.85;54.89
15678;BME280;7939;50.814;6.368;2023-05-01T09:13:48;99748.19;;;16.87;54.81
15678;BME280;7939;50.814;6.368;2023-05-01T09:16:15;99740.34;;;16.90;54.74
15678;BME280;7939;50.814;6.368;2023-05-01T09:18:43;99746.28;;;16.93;54.59
15678;BME280;7939;50.814;6.368;2023-05-01T09:21:10;99746.22;;;16.95;54.12
15678;BME280;7939;50.814;6.368;2023-05-01T09:23:37;99748.75;;;16.98;54.60
15678;BME280;7939;50.814;6.368;2023-05-01T09:26:05;99746.91;;;17.02;54.54
15678;BME280;7939;50.814;6.368;2023-05-01T09:28:39;99756.28;;;17.06;54.47
15678;BME280;7939;50.814;6.368;2023-05-01T09:31:21;99754.53;;;17.06;54.14
15678;BME280;7939;50.814;6.368;2023-05-01T09:33:52;99752.75;;;17.10;54.05
15678;BME280;7939;50.814;6.368;2023-05-01T09:36:22;99756.16;;;17.10;54.45
15678;BME280;7939;50.814;6.368;2023-05-01T09:38:49;99739.78;;;17.11;54.28
15678;BME280;7939;50.814;6.368;2023-05-01T09:41:17;99745.75;;;17.13;54.06
15678;BME280;7939;50.814;6.368;2023-05-01T09:43:48;99761.19;;;17.15;54.18
15678;BME280;7939;50.814;6.368;2023-05-01T09:46:15;99757.69;;;17.17;54.27
15678;BME280;7939;50.814;6.368;2023-05-01T09:48:52;99756.78;;;17.18;54.04
15678;BME280;7939;50.814;6.368;2023-05-01T09:51:22;99747.25;;;17.20;53.89
15678;BME280;7939;50.814;6.368;2023-05-01T09:53:49;99747.25;;;17.20;54.10
15678;BME280;7939;50.814;6.368;2023-05-01T09:56:17;99748.94;;;17.23;54.36
15678;BME280;7939;50.814;6.368;2023-05-01T09:58:44;99748.78;;;17.27;54.49
15678;BME280;7939;50.814;6.368;2023-05-01T10:01:11;99753.88;;;17.31;53.67
15678;BME280;7939;50.814;6.368;2023-05-01T10:03:37;99754.72;;;17.31;53.87
15678;BME280;7939;50.814;6.368;2023-05-01T10:06:05;99758.03;;;17.35;52.98
15678;BME280;7939;50.814;6.368;2023-05-01T10:08:46;99749.44;;;17.34;52.21
15678;BME280;7939;50.814;6.368;2023-05-01T10:11:13;99754.59;;;17.36;52.69
15678;BME280;7939;50.814;6.368;2023-05-01T10:13:40;99751.97;;;17.37;53.11
15678;BME280;7939;50.814;6.368;2023-05-01T10:16:26;99756.28;;;17.37;52.83
15678;BME280;7939;50.814;6.368;2023-05-01T10:18:54;99754.56;;;17.37;52.39
15678;BME280;7939;50.814;6.368;2023-05-01T10:21:22;99753.66;;;17.38;52.63
15678;BME280;7939;50.814;6.368;2023-05-01T10:23:50;99751.91;;;17.39;53.48
15678;BME280;7939;50.814;6.368;2023-05-01T10:26:17;99754.44;;;17.40;52.96
15678;BME280;7939;50.814;6.368;2023-05-01T10:28:46;99747.53;;;17.42;52.76
15678;BME280;7939;50.814;6.368;2023-05-01T10:31:14;99751.78;;;17.43;52.61
15678;BME280;7939;50.814;6.368;2023-05-01T10:33:41;99745.69;;;17.46;52.96
15678;BME280;7939;50.814;6.368;2023-05-01T10:36:11;99747.34;;;17.48;53.35
15678;BME280;7939;50.814;6.368;2023-05-01T10:38:42;99748.19;;;17.49;52.89
15678;BME280;7939;50.814;6.368;2023-05-01T10:41:12;99744.59;;;17.53;52.73
15678;BME280;7939;50.814;6.368;2023-05-01T10:43:39;99751.34;;;17.59;53.06
15678;BME280;7939;50.814;6.368;2023-05-01T10:46:26;99745.19;;;17.63;53.51
15678;BME280;7939;50.814;6.368;2023-05-01T10:48:57;99749.41;;;17.67;52.92
15678;BME280;7939;50.814;6.368;2023-05-01T10:51:24;99742.38;;;17.70;52.90
15678;BME280;7939;50.814;6.368;2023-05-01T10:54:26;99748.34;;;17.74;52.94
15678;BME280;7939;50.814;6.368;2023-05-01T10:56:55;99749.16;;;17.76;52.74
15678;BME280;7939;50.814;6.368;2023-05-01T10:59:22;99738.72;;;17.79;52.82
15678;BME280;7939;50.814;6.368;2023-05-01T11:01:50;99742.09;;;17.81;51.64
15678;BME280;7939;50.814;6.368;2023-05-01T11:04:46;99741.13;;;17.85;51.95
15678;BME280;7939;50.814;6.368;2023-05-01T11:07:16;99747.81;;;17.92;51.38
15678;BME280;7939;50.814;6.368;2023-05-01T11:09:45;99739.16;;;17.93;51.31
15678;BME280;7939;50.814;6.368;2023-05-01T11:12:14;99728.69;;;17.96;51.28
15678;BME280;7939;50.814;6.368;2023-05-01T11:15:02;99739.75;;;18.01;51.03
15678;BME280;7939;50.814;6.368;2023-05-01T11:17:46;99733.59;;;18.05;51.35
15678;BME280;7939;50.814;6.368;2023-05-01T11:20:48;99732.63;;;18.08;50.84
15678;BME280;7939;50.814;6.368;2023-05-01T11:23:18;99724.81;;;18.10;50.51
15678;BME280;7939;50.814;6.368;2023-05-01T11:25:47;99727.38;;;18.11;51.56
15678;BME280;7939;50.814;6.368;2023-05-01T11:28:19;99729.84;;;18.14;51.15
15678;BME280;7939;50.814;6.368;2023-05-01T11:30:47;99727.22;;;18.16;51.27
15678;BME280;7939;50.814;6.368;2023-05-01T11:33:20;99729.72;;;18.19;51.15
15678;BME280;7939;50.814;6.368;2023-05-01T11:35:58;99739.22;;;18.18;51.70
15678;BME280;7939;50.814;6.368;2023-05-01T11:38:25;99729.66;;;18.20;50.83
15678;BME280;7939;50.814;6.368;2023-05-01T11:41:01;99731.31;;;18.23;50.98
15678;BME280;7939;50.814;6.368;2023-05-01T11:43:29;99722.69;;;18.22;50.47
15678;BME280;7939;50.814;6.368;2023-05-01T11:45:56;99727.84;;;18.24;50.67
15678;BME280;7939;50.814;6.368;2023-05-01T11:48:28;99728.69;;;18.24;50.51
15678;BME280;7939;50.814;6.368;2023-05-01T11:50:55;99725.19;;;18.25;50.88
15678;BME280;7939;50.814;6.368;2023-05-01T11:53:22;99722.63;;;18.25;51.12
15678;BME280;7939;50.814;6.368;2023-05-01T11:55:49;99720.88;;;18.26;51.01
15678;BME280;7939;50.814;6.368;2023-05-01T11:58:29;99719.06;;;18.28;51.14
15678;BME280;7939;50.814;6.368;2023-05-01T12:00:56;99723.41;;;18.27;51.21
15678;BME280;7939;50.814;6.368;2023-05-01T12:03:23;99723.41;;;18.27;50.95
15678;BME280;7939;50.814;6.368;2023-05-01T12:05:50;99723.41;;;18.27;51.66
15678;BME280;7939;50.814;6.368;2023-05-01T12:08:19;99721.66;;;18.28;51.78
15678;BME280;7939;50.814;6.368;2023-05-01T12:10:47;99717.31;;;18.28;51.59
15678;BME280;7939;50.814;6.368;2023-05-01T12:13:15;99724.25;;;18.28;51.63
15678;BME280;7939;50.814;6.368;2023-05-01T12:15:44;99722.50;;;18.28;52.18
15678;BME280;7939;50.814;6.368;2023-05-01T12:18:11;99716.44;;;18.29;52.12
15678;BME280;7939;50.814;6.368;2023-05-01T12:20:40;99713.88;;;18.29;51.76
15678;BME280;7939;50.814;6.368;2023-05-01T12:23:09;99712.97;;;18.30;52.10
15678;BME280;7939;50.814;6.368;2023-05-01T12:25:37;99707.78;;;18.30;51.79
15678;BME280;7939;50.814;6.368;2023-05-01T12:28:07;99707.78;;;18.30;51.69
15678;BME280;7939;50.814;6.368;2023-05-01T12:30:35;99709.47;;;18.31;51.68
15678;BME280;7939;50.814;6.368;2023-05-01T12:33:09;99712.91;;;18.32;51.44
15678;BME280;7939;50.814;6.368;2023-05-01T12:35:36;99711.16;;;18.32;52.00
15678;BME280;7939;50.814;6.368;2023-05-01T12:38:11;99706.78;;;18.34;51.94
15678;BME280;7939;50.814;6.368;2023-05-01T12:40:39;99711.06;;;18.36;52.33
15678;BME280;7939;50.814;6.368;2023-05-01T12:43:05;99705.84;;;18.37;51.86
15678;BME280;7939;50.814;6.368;2023-05-01T12:45:39;99702.31;;;18.40;51.76
15678;BME280;7939;50.814;6.368;2023-05-01T12:48:11;99692.75;;;18.42;51.25
15678;BME280;7939;50.814;6.368;2023-05-01T12:50:39;99689.16;;;18.46;51.77
15678;BME280;7939;50.814;6.368;2023-05-01T12:53:06;99696.00;;;18.48;51.21
15678;BME280;7939;50.814;6.368;2023-05-01T12:55:44;99699.50;;;18.46;51.69
15678;BME280;7939;50.814;6.368;2023-05-01T12:58:12;99689.00;;;18.50;51.06
15678;BME280;7939;50.814;6.368;2023-05-01T13:00:47;99691.53;;;18.52;51.03
15678;BME280;7939;50.814;6.368;2023-05-01T13:03:22;99692.38;;;18.52;50.67
15678;BME280;7939;50.814;6.368;2023-05-01T13:05:50;99693.06;;;18.57;51.21
15678;BME280;7939;50.814;6.368;2023-05-01T13:08:24;99694.75;;;18.58;51.34
15678;BME280;7939;50.814;6.368;2023-05-01T13:10:52;99696.50;;;18.58;50.68
15678;BME280;7939;50.814;6.368;2023-05-01T13:13:24;99704.19;;;18.61;50.72
15678;BME280;7939;50.814;6.368;2023-05-01T13:15:51;99701.59;;;18.61;51.04
15678;BME280;7939;50.814;6.368;2023-05-01T13:18:19;99710.22;;;18.60;51.00